Time;durP1;ratioP1;P1;durP2;ratioP2;P2;SDS_P1;SDS_P2;PMS_P1;PMS_P2;Temp;Humidity;BMP_temperature;BMP_pressure;BME280_temperature;BME280_humidity;BME280_pressure;Samples;Min_cycle;Max_cycle;Signal;HPM_P1;HPM_P2
2021/09/22 00:01:40;;;;;;;4.15;3.33;;;14.90;99.90;;;;;;4160936;28;20098;-72
2021/09/22 00:03:41;;;;;;;4.10;2.95;;;14.90;99.90;;;;;;4166232;28;20493;-72
2021/09/22 00:05:42;;;;;;;3.67;2.88;;;14.90;99.90;;;;;;4166902;28;20509;-73
2021/09/22 00:07:42;;;;;;;4.85;3.50;;;14.90;99.90;;;;;;4169606;28;20128;-72
2021/09/22 00:09:43;;;;;;;3.85;3.28;;;14.90;99.90;;;;;;4164085;28;20526;-72
2021/09/22 00:11:44;;;;;;;4.20;3.42;;;14.90;99.90;;;;;;4160903;28;20064;-73
2021/09/22 00:13:44;;;;;;;5.03;3.08;;;14.80;99.90;;;;;;4165562;28;20420;-72
2021/09/22 00:15:45;;;;;;;3.50;3.03;;;14.80;99.90;;;;;;4170870;28;20044;-72
2021/09/22 00:17:46;;;;;;;3.90;3.00;;;14.80;99.90;;;;;;4163062;28;20040;-72
2021/09/22 00:19:47;;;;;;;3.38;3.00;;;14.80;99.90;;;;;;4168140;28;20125;-72
2021/09/22 00:21:48;;;;;;;5.28;3.45;;;14.80;99.90;;;;;;4167253;28;20037;-72
2021/09/22 00:23:48;;;;;;;5.35;3.70;;;14.70;99.90;;;;;;4171374;28;20393;-72
2021/09/22 00:25:49;;;;;;;4.88;3.40;;;14.80;99.90;;;;;;4165574;28;20038;-72
2021/09/22 00:27:50;;;;;;;6.13;3.80;;;14.70;99.90;;;;;;4171852;28;20045;-73
2021/09/22 00:29:51;;;;;;;5.00;3.92;;;14.70;99.90;;;;;;4167944;28;20060;-72
2021/09/22 00:31:52;;;;;;;5.00;3.85;;;14.70;99.90;;;;;;4169395;28;20472;-72
2021/09/22 00:33:52;;;;;;;5.10;3.75;;;14.70;99.90;;;;;;4168110;28;20097;-72
2021/09/22 00:35:53;;;;;;;6.35;4.40;;;14.70;99.90;;;;;;4161725;28;20068;-72
2021/09/22 00:37:54;;;;;;;6.20;3.80;;;14.70;99.90;;;;;;4161827;28;20045;-73
2021/09/22 00:39:54;;;;;;;5.82;3.50;;;14.60;99.90;;;;;;4170605;28;20076;-72
2021/09/22 00:41:55;;;;;;;4.45;3.35;;;14.70;99.90;;;;;;4167961;28;20768;-73
2021/09/22 00:43:55;;;;;;;5.55;3.70;;;14.70;99.90;;;;;;4164359;28;20041;-72
2021/09/22 00:46:04;;;;;;;5.90;3.67;;;14.60;99.90;;;;;;4162995;28;20039;-72
2021/09/22 00:48:04;;;;;;;4.75;3.60;;;14.70;99.90;;;;;;4159852;28;20099;-73
2021/09/22 00:50:06;;;;;;;6.13;3.88;;;14.70;99.90;;;;;;4167810;28;20041;-72
2021/09/22 00:52:07;;;;;;;4.82;3.60;;;14.70;99.90;;;;;;4169741;28;20099;-73
2021/09/22 00:54:12;;;;;;;6.63;3.72;;;14.70;99.90;;;;;;4162414;28;20050;-73
2021/09/22 00:56:14;;;;;;;5.53;4.00;;;14.70;99.90;;;;;;4166347;28;20044;-73
2021/09/22 00:58:15;;;;;;;5.90;3.58;;;14.60;99.90;;;;;;4171127;28;20090;-72
2021/09/22 01:00:17;;;;;;;4.80;3.80;;;14.60;99.90;;;;;;4165473;28;20037;-73
2021/09/22 01:02:18;;;;;;;4.47;3.67;;;14.60;99.90;;;;;;4166776;28;20033;-72
2021/09/22 01:04:19;;;;;;;5.68;4.15;;;14.60;99.90;;;;;;4171068;28;20774;-72
2021/09/22 01:06:19;;;;;;;5.47;3.92;;;14.60;99.90;;;;;;4164676;28;20053;-72
2021/09/22 01:08:21;;;;;;;7.28;4.47;;;14.60;99.90;;;;;;4165079;28;20044;-72
2021/09/22 01:10:22;;;;;;;7.70;4.60;;;14.50;99.90;;;;;;4163444;28;20451;-72
2021/09/22 01:12:22;;;;;;;5.38;3.97;;;14.40;99.90;;;;;;4170407;28;20112;-73
2021/09/22 01:14:24;;;;;;;5.05;3.92;;;14.40;99.90;;;;;;4162153;28;20780;-73
2021/09/22 01:16:25;;;;;;;5.13;4.25;;;14.40;99.90;;;;;;4164307;28;20036;-72
2021/09/22 01:18:25;;;;;;;5.47;4.15;;;14.30;99.90;;;;;;4167606;28;20565;-73
2021/09/22 01:20:29;;;;;;;6.40;4.07;;;14.40;99.90;;;;;;4167974;28;20037;-72
2021/09/22 01:22:30;;;;;;;4.93;3.55;;;14.30;99.90;;;;;;4163859;28;20060;-72
2021/09/22 01:24:31;;;;;;;6.25;3.80;;;14.30;99.90;;;;;;4162363;28;20666;-72
2021/09/22 01:26:32;;;;;;;4.75;3.85;;;14.30;99.90;;;;;;4164006;28;20032;-72
2021/09/22 01:28:33;;;;;;;5.67;3.97;;;14.30;99.90;;;;;;4165548;28;20559;-72
2021/09/22 01:30:33;;;;;;;5.78;4.15;;;14.30;99.90;;;;;;4166579;28;20057;-72
2021/09/22 01:32:34;;;;;;;5.63;4.53;;;14.30;99.90;;;;;;4168725;28;20087;-72
2021/09/22 01:34:35;;;;;;;6.05;3.95;;;14.30;99.90;;;;;;4163436;28;20641;-72
2021/09/22 01:36:35;;;;;;;6.25;4.25;;;14.20;99.90;;;;;;4144446;28;20125;-73
2021/09/22 01:38:36;;;;;;;5.68;4.03;;;14.20;99.90;;;;;;4170949;28;20128;-72
2021/09/22 01:40:37;;;;;;;6.50;4.20;;;14.20;99.90;;;;;;4171332;28;20049;-72
2021/09/22 01:42:37;;;;;;;6.90;4.60;;;14.20;99.90;;;;;;4160508;28;20039;-72
2021/09/22 01:44:38;;;;;;;5.65;4.20;;;14.20;99.90;;;;;;4148055;28;20038;-72
2021/09/22 01:46:39;;;;;;;7.43;4.30;;;14.20;99.90;;;;;;4170755;28;20384;-72
2021/09/22 01:48:40;;;;;;;7.80;4.55;;;14.20;99.90;;;;;;4165888;28;20041;-72
2021/09/22 01:50:42;;;;;;;5.57;3.92;;;14.20;99.90;;;;;;4166792;28;20124;-72
2021/09/22 01:52:44;;;;;;;5.40;3.88;;;14.20;99.90;;;;;;4173011;28;20032;-72
2021/09/22 01:54:44;;;;;;;5.55;4.00;;;14.20;99.90;;;;;;4169781;28;20033;-72
2021/09/22 01:56:45;;;;;;;5.90;4.18;;;14.20;99.90;;;;;;4165692;28;20029;-72
2021/09/22 01:58:45;;;;;;;6.68;4.15;;;14.20;99.90;;;;;;4159270;28;20567;-72
2021/09/22 02:00:47;;;;;;;6.40;4.50;;;14.20;99.90;;;;;;4172290;28;20086;-73
2021/09/22 02:02:47;;;;;;;5.78;4.50;;;14.20;99.90;;;;;;4171907;28;20041;-72
2021/09/22 02:04:48;;;;;;;5.68;4.00;;;14.20;99.90;;;;;;4165318;28;20045;-72
2021/09/22 02:06:49;;;;;;;5.10;3.78;;;14.20;99.90;;;;;;4160477;28;20037;-72
2021/09/22 02:08:49;;;;;;;5.57;4.38;;;14.20;99.90;;;;;;4173205;28;20052;-72
2021/09/22 02:10:50;;;;;;;6.05;4.65;;;14.20;99.90;;;;;;4165966;28;20034;-72
2021/09/22 02:12:50;;;;;;;5.55;4.22;;;14.20;99.90;;;;;;4163808;28;20033;-73
2021/09/22 02:14:51;;;;;;;4.75;4.03;;;14.10;99.90;;;;;;4168092;28;20047;-72
2021/09/22 02:16:53;;;;;;;5.65;4.15;;;14.20;99.90;;;;;;4169488;28;20397;-72
2021/09/22 02:18:53;;;;;;;6.82;4.05;;;14.20;99.90;;;;;;4167916;28;20030;-73
2021/09/22 02:20:54;;;;;;;7.00;4.63;;;14.10;99.90;;;;;;4170905;28;20039;-72
2021/09/22 02:22:55;;;;;;;6.50;4.28;;;14.10;99.90;;;;;;4161946;28;20412;-72
2021/09/22 02:24:56;;;;;;;8.48;4.50;;;14.10;99.90;;;;;;4170506;28;20045;-73
2021/09/22 02:26:56;;;;;;;5.60;4.50;;;14.00;99.90;;;;;;4166929;28;20023;-72
2021/09/22 02:28:57;;;;;;;5.88;4.25;;;14.00;99.90;;;;;;4169808;28;20129;-72
2021/09/22 02:30:58;;;;;;;6.43;4.32;;;14.00;99.90;;;;;;4173390;28;20116;-73
2021/09/22 02:32:58;;;;;;;7.03;4.30;;;14.00;99.90;;;;;;4166363;28;20039;-73
2021/09/22 02:34:59;;;;;;;5.80;4.03;;;14.00;99.90;;;;;;4166273;28;20616;-72
2021/09/22 02:37:00;;;;;;;5.78;4.10;;;14.10;99.90;;;;;;4167101;28;20108;-73
2021/09/22 02:39:00;;;;;;;5.50;4.35;;;14.00;99.90;;;;;;4171765;28;20087;-73
2021/09/22 02:41:01;;;;;;;5.93;4.03;;;14.00;99.90;;;;;;4167634;28;20539;-72
2021/09/22 02:43:01;;;;;;;8.57;4.93;;;14.00;99.90;;;;;;4161857;28;20033;-73
2021/09/22 02:45:03;;;;;;;6.82;5.40;;;14.00;99.90;;;;;;4172301;28;20514;-72
2021/09/22 02:47:03;;;;;;;5.38;4.28;;;13.90;99.90;;;;;;4170219;28;20513;-72
2021/09/22 02:49:04;;;;;;;7.70;4.65;;;13.90;99.90;;;;;;4165304;28;20072;-72
2021/09/22 02:51:05;;;;;;;7.32;4.80;;;13.90;99.90;;;;;;4169786;28;20213;-72
2021/09/22 02:53:05;;;;;;;7.85;4.70;;;13.90;99.90;;;;;;4168108;28;20032;-73
2021/09/22 02:55:06;;;;;;;8.15;5.05;;;13.90;99.90;;;;;;4167706;28;20054;-72
2021/09/22 02:57:07;;;;;;;8.15;4.53;;;13.80;99.90;;;;;;4172518;28;20048;-73
2021/09/22 02:59:08;;;;;;;7.70;5.30;;;13.80;99.90;;;;;;4168068;28;20050;-73
2021/09/22 03:01:08;;;;;;;6.70;4.90;;;13.80;99.90;;;;;;4165790;28;20045;-72
2021/09/22 03:03:09;;;;;;;8.45;5.13;;;13.80;99.90;;;;;;4165101;28;20098;-73
2021/09/22 03:05:10;;;;;;;8.07;4.72;;;13.80;99.90;;;;;;4165470;28;20138;-72
2021/09/22 03:07:11;;;;;;;7.68;4.82;;;13.80;99.90;;;;;;4146387;28;21560;-72
2021/09/22 03:09:11;;;;;;;7.40;5.15;;;13.80;99.90;;;;;;4169539;28;20123;-72
2021/09/22 03:11:12;;;;;;;8.02;5.22;;;13.80;99.90;;;;;;4166360;28;20027;-72
2021/09/22 03:13:13;;;;;;;8.00;5.38;;;13.80;99.90;;;;;;4164633;28;20132;-72
2021/09/22 03:15:14;;;;;;;7.20;5.35;;;13.80;99.90;;;;;;4166627;28;20082;-72
2021/09/22 03:17:15;;;;;;;8.98;5.60;;;13.80;99.90;;;;;;4167142;28;20559;-73
2021/09/22 03:19:16;;;;;;;8.50;5.45;;;13.80;99.90;;;;;;4165464;28;20033;-73
2021/09/22 03:21:16;;;;;;;9.52;5.30;;;13.80;99.90;;;;;;4168144;28;20037;-73
2021/09/22 03:23:17;;;;;;;7.03;4.72;;;13.80;99.90;;;;;;4169847;28;20116;-72
2021/09/22 03:25:18;;;;;;;6.97;5.03;;;13.80;99.90;;;;;;4165773;28;20029;-72
2021/09/22 03:27:18;;;;;;;6.95;4.53;;;13.80;99.90;;;;;;4166202;28;20492;-72
2021/09/22 03:29:19;;;;;;;5.57;4.28;;;13.80;99.90;;;;;;4163992;28;20029;-72
2021/09/22 03:31:20;;;;;;;6.75;4.65;;;13.80;99.90;;;;;;4164930;28;20037;-72
2021/09/22 03:33:20;;;;;;;7.07;4.82;;;13.80;99.90;;;;;;4173346;28;20041;-73
2021/09/22 03:35:21;;;;;;;7.30;4.80;;;13.80;99.90;;;;;;4159315;28;20037;-72
2021/09/22 03:37:21;;;;;;;7.85;4.53;;;13.80;99.90;;;;;;4172105;28;20484;-72
2021/09/22 03:39:22;;;;;;;7.68;5.00;;;13.80;99.90;;;;;;4163556;28;20167;-72
2021/09/22 03:41:23;;;;;;;8.18;5.20;;;13.70;99.90;;;;;;4173771;28;20519;-73
2021/09/22 03:43:24;;;;;;;5.60;4.45;;;13.70;99.90;;;;;;4169592;28;20082;-72
2021/09/22 03:45:25;;;;;;;6.63;4.47;;;13.70;99.90;;;;;;4168926;28;20396;-73
2021/09/22 03:47:25;;;;;;;5.55;4.40;;;13.70;99.90;;;;;;4170958;28;20056;-72
2021/09/22 03:49:26;;;;;;;6.03;4.20;;;13.60;99.90;;;;;;4171975;28;20047;-73
2021/09/22 03:51:27;;;;;;;5.85;4.18;;;13.60;99.90;;;;;;4171816;28;20118;-73
2021/09/22 03:53:27;;;;;;;5.93;3.80;;;13.70;99.90;;;;;;4165925;28;20128;-72
2021/09/22 03:55:29;;;;;;;5.82;4.25;;;13.60;99.90;;;;;;4170441;28;20040;-72
2021/09/22 03:57:29;;;;;;;5.80;4.15;;;13.60;99.90;;;;;;4166787;28;20103;-72
2021/09/22 03:59:30;;;;;;;6.50;4.22;;;13.60;99.90;;;;;;4170224;28;20036;-72
2021/09/22 04:01:31;;;;;;;6.13;4.43;;;13.60;99.90;;;;;;4164804;28;20036;-72
2021/09/22 04:03:31;;;;;;;7.07;5.15;;;13.50;99.90;;;;;;4167797;28;20099;-72
2021/09/22 04:05:32;;;;;;;6.68;4.65;;;13.50;99.90;;;;;;4168780;28;20047;-73
2021/09/22 04:07:33;;;;;;;6.30;4.82;;;13.50;99.90;;;;;;4168770;28;20029;-72
2021/09/22 04:09:33;;;;;;;6.32;4.50;;;13.50;99.90;;;;;;4169894;28;20072;-72
2021/09/22 04:11:34;;;;;;;8.80;5.07;;;13.50;99.90;;;;;;4166128;28;20036;-73
2021/09/22 04:13:35;;;;;;;7.75;4.90;;;13.50;99.90;;;;;;4169225;28;20036;-73
2021/09/22 04:15:36;;;;;;;7.97;5.57;;;13.50;99.90;;;;;;4168655;28;20083;-72
2021/09/22 04:17:36;;;;;;;8.35;5.20;;;13.50;99.90;;;;;;4170823;28;20029;-72
2021/09/22 04:19:37;;;;;;;7.05;4.95;;;13.50;99.90;;;;;;4169598;28;20036;-72
2021/09/22 04:21:38;;;;;;;7.78;4.10;;;13.50;99.90;;;;;;4176784;28;20091;-73
2021/09/22 04:23:39;;;;;;;5.45;3.72;;;13.50;99.90;;;;;;4164223;28;20044;-72
2021/09/22 04:25:39;;;;;;;6.43;4.72;;;13.50;99.90;;;;;;4172534;28;20045;-73
2021/09/22 04:27:40;;;;;;;6.40;4.20;;;13.50;99.90;;;;;;4162371;28;20044;-72
2021/09/22 04:29:42;;;;;;;5.85;4.25;;;13.50;99.90;;;;;;4172461;28;20041;-72
2021/09/22 04:31:43;;;;;;;5.55;3.97;;;13.50;99.90;;;;;;4172763;28;20455;-72
2021/09/22 04:33:44;;;;;;;6.95;4.38;;;13.50;99.90;;;;;;4168715;28;20045;-73
2021/09/22 04:35:44;;;;;;;7.85;5.10;;;13.50;99.90;;;;;;4163138;28;20064;-72
2021/09/22 04:37:47;;;;;;;7.45;5.43;;;13.40;99.90;;;;;;4170651;28;20036;-73
2021/09/22 04:39:48;;;;;;;9.05;5.78;;;13.50;99.90;;;;;;4158174;28;20462;-72
2021/09/22 04:41:49;;;;;;;10.65;6.30;;;13.40;99.90;;;;;;4156869;28;20045;-72
2021/09/22 04:43:49;;;;;;;10.10;5.88;;;13.40;99.90;;;;;;4167992;28;20036;-72
2021/09/22 04:45:50;;;;;;;10.90;6.35;;;13.40;99.90;;;;;;4158273;28;20129;-72
2021/09/22 04:47:51;;;;;;;10.00;6.57;;;13.40;99.90;;;;;;4158298;28;20703;-73
2021/09/22 04:49:51;;;;;;;9.52;6.18;;;13.40;99.90;;;;;;4166498;28;20719;-72
2021/09/22 04:51:52;;;;;;;9.30;6.82;;;13.40;99.90;;;;;;4174041;28;20025;-72
2021/09/22 04:53:53;;;;;;;11.70;7.22;;;13.40;99.90;;;;;;4173347;28;20037;-72
2021/09/22 04:55:53;;;;;;;8.80;6.13;;;13.40;99.90;;;;;;4171560;28;20057;-72
2021/09/22 04:57:54;;;;;;;11.02;7.10;;;13.30;99.90;;;;;;4157810;28;20069;-74
2021/09/22 04:59:54;;;;;;;9.43;7.20;;;13.30;99.90;;;;;;4164341;28;20437;-73
2021/09/22 05:01:55;;;;;;;11.07;6.68;;;13.30;99.90;;;;;;4178726;28;20497;-74
2021/09/22 05:03:55;;;;;;;10.55;7.35;;;13.30;99.90;;;;;;4182189;28;20069;-74
2021/09/22 05:05:57;;;;;;;10.02;6.70;;;13.30;99.90;;;;;;4172931;28;20041;-73
2021/09/22 05:08:00;;;;;;;10.93;7.03;;;13.30;99.90;;;;;;4170620;28;20063;-73
2021/09/22 05:10:00;;;;;;;12.25;7.60;;;13.30;99.90;;;;;;4168342;28;20276;-74
2021/09/22 05:12:01;;;;;;;11.23;6.93;;;13.30;99.90;;;;;;4169179;28;20115;-74
2021/09/22 05:14:02;;;;;;;9.02;6.13;;;13.30;99.90;;;;;;4174291;28;20553;-74
2021/09/22 05:16:03;;;;;;;9.13;6.13;;;13.40;99.90;;;;;;4173176;28;20040;-74
2021/09/22 05:18:04;;;;;;;10.07;6.90;;;13.30;99.90;;;;;;4173639;28;20025;-75
2021/09/22 05:20:05;;;;;;;9.55;6.80;;;13.40;99.90;;;;;;4167548;28;20048;-74
2021/09/22 05:22:06;;;;;;;9.68;6.75;;;13.40;99.90;;;;;;4171903;28;20033;-74
2021/09/22 05:24:06;;;;;;;11.07;6.80;;;13.40;99.90;;;;;;4166936;28;20037;-74
2021/09/22 05:26:07;;;;;;;9.68;6.32;;;13.40;99.90;;;;;;4171610;28;20055;-75
2021/09/22 05:28:07;;;;;;;9.95;6.20;;;13.40;99.90;;;;;;4176731;28;20048;-74
2021/09/22 05:30:09;;;;;;;11.30;7.38;;;13.40;99.90;;;;;;4173612;28;20044;-74
2021/09/22 05:32:09;;;;;;;8.70;6.65;;;13.40;99.90;;;;;;4172097;28;20615;-75
2021/09/22 05:34:10;;;;;;;8.63;5.80;;;13.40;99.90;;;;;;4174716;28;20102;-75
2021/09/22 05:36:11;;;;;;;9.23;6.40;;;13.40;99.90;;;;;;4171285;28;20618;-74
2021/09/22 05:38:12;;;;;;;9.23;6.25;;;13.40;99.90;;;;;;4173354;28;20144;-75
2021/09/22 05:40:12;;;;;;;9.27;6.25;;;13.40;99.90;;;;;;4172227;28;20099;-75
2021/09/22 05:42:13;;;;;;;9.50;6.68;;;13.40;99.90;;;;;;4175971;28;20040;-75
2021/09/22 05:44:14;;;;;;;11.48;7.32;;;13.40;99.90;;;;;;4174175;28;20069;-75
2021/09/22 05:46:14;;;;;;;12.32;7.70;;;13.40;99.90;;;;;;4173741;28;20080;-75
2021/09/22 05:48:15;;;;;;;9.70;6.88;;;13.40;99.90;;;;;;4174767;28;20131;-75
2021/09/22 05:50:16;;;;;;;9.50;6.72;;;13.30;99.90;;;;;;4174591;28;20124;-75
2021/09/22 05:52:16;;;;;;;7.70;5.88;;;13.30;99.90;;;;;;4172586;28;20425;-75
2021/09/22 05:54:17;;;;;;;11.00;6.75;;;13.40;99.90;;;;;;4171586;28;20045;-75
2021/09/22 05:56:17;;;;;;;9.20;6.25;;;13.30;99.90;;;;;;4171927;28;20044;-75
2021/09/22 05:58:20;;;;;;;10.43;6.60;;;13.30;99.90;;;;;;4171810;28;20572;-75
2021/09/22 06:00:20;;;;;;;10.32;6.63;;;13.40;99.90;;;;;;4174841;28;20045;-75
2021/09/22 06:02:21;;;;;;;10.15;6.80;;;13.30;99.90;;;;;;4174427;28;20090;-75
2021/09/22 06:04:21;;;;;;;11.23;7.30;;;13.30;99.90;;;;;;4173258;28;20500;-75
2021/09/22 06:06:22;;;;;;;8.27;6.32;;;13.30;99.90;;;;;;4173798;28;20060;-75
2021/09/22 06:08:23;;;;;;;9.20;6.30;;;13.20;99.90;;;;;;4170437;28;20025;-75
2021/09/22 06:10:23;;;;;;;8.82;6.03;;;13.30;99.90;;;;;;4173270;28;20044;-75
2021/09/22 06:12:24;;;;;;;8.95;5.65;;;13.30;99.90;;;;;;4172981;28;20056;-75
2021/09/22 06:14:25;;;;;;;8.18;5.88;;;13.30;99.90;;;;;;4172942;28;21558;-75
2021/09/22 06:16:26;;;;;;;9.27;6.25;;;13.30;99.90;;;;;;4173526;28;20033;-75
2021/09/22 06:18:27;;;;;;;9.18;5.80;;;13.30;99.90;;;;;;4172031;28;20044;-75
2021/09/22 06:20:28;;;;;;;9.00;6.13;;;13.40;99.90;;;;;;4170941;28;20033;-75
2021/09/22 06:22:29;;;;;;;9.63;6.93;;;13.40;99.90;;;;;;4154632;28;20029;-75
2021/09/22 06:24:30;;;;;;;12.13;7.22;;;13.40;99.90;;;;;;4168937;28;20973;-75
2021/09/22 06:26:31;;;;;;;9.82;6.60;;;13.40;99.90;;;;;;4152496;28;20029;-75
2021/09/22 06:28:33;;;;;;;9.57;6.63;;;13.40;99.90;;;;;;4170821;28;20029;-75
2021/09/22 06:30:33;;;;;;;10.27;6.50;;;13.40;99.90;;;;;;4169905;28;20094;-75
2021/09/22 06:32:35;;;;;;;12.32;6.72;;;13.40;99.90;;;;;;4170705;28;20477;-75
2021/09/22 06:34:36;;;;;;;8.57;6.47;;;13.40;99.90;;;;;;4168798;28;20036;-75
2021/09/22 06:36:36;;;;;;;11.70;7.72;;;13.50;99.90;;;;;;4171221;28;20060;-75
2021/09/22 06:38:37;;;;;;;14.70;8.63;;;13.40;99.90;;;;;;4169846;28;20044;-75
2021/09/22 06:40:38;;;;;;;11.85;7.82;;;13.40;99.90;;;;;;4169931;28;20420;-75
2021/09/22 06:42:38;;;;;;;14.07;8.48;;;13.40;99.90;;;;;;4170804;28;20400;-76
2021/09/22 06:44:39;;;;;;;17.55;8.65;;;13.30;99.90;;;;;;4168457;28;20029;-75
2021/09/22 06:46:40;;;;;;;19.05;9.55;;;13.30;99.90;;;;;;4167995;28;20382;-75
2021/09/22 06:48:40;;;;;;;14.50;8.70;;;13.30;99.90;;;;;;4167348;28;20048;-76
2021/09/22 06:50:41;;;;;;;12.68;8.48;;;13.30;99.90;;;;;;4168993;28;20044;-76
2021/09/22 06:52:41;;;;;;;12.57;8.40;;;13.30;99.90;;;;;;4170018;28;20420;-75
2021/09/22 06:54:42;;;;;;;13.45;7.70;;;13.40;99.90;;;;;;4165994;28;20083;-75
2021/09/22 06:56:43;;;;;;;11.75;7.97;;;13.40;99.90;;;;;;4168198;28;20132;-75
2021/09/22 06:58:43;;;;;;;14.60;9.55;;;13.40;99.90;;;;;;4168228;28;20412;-75
2021/09/22 07:00:44;;;;;;;14.15;8.88;;;13.40;99.90;;;;;;4169014;28;20056;-75
2021/09/22 07:02:44;;;;;;;19.98;11.02;;;13.50;99.90;;;;;;4171975;28;20377;-75
2021/09/22 07:04:45;;;;;;;13.73;9.07;;;13.50;99.90;;;;;;4168385;28;20528;-75
2021/09/22 07:06:45;;;;;;;14.13;9.15;;;13.40;99.90;;;;;;4170314;28;20045;-75
2021/09/22 07:08:46;;;;;;;14.68;9.75;;;13.50;99.90;;;;;;4170737;28;20033;-75
2021/09/22 07:10:47;;;;;;;14.45;9.80;;;13.50;99.90;;;;;;4168845;28;20393;-76
2021/09/22 07:12:50;;;;;;;16.40;9.35;;;13.50;99.90;;;;;;4168703;28;20044;-76
2021/09/22 07:14:51;;;;;;;16.25;9.60;;;13.50;99.90;;;;;;4171605;28;20084;-76
2021/09/22 07:16:51;;;;;;;14.77;9.88;;;13.60;99.90;;;;;;4170314;28;20033;-76
2021/09/22 07:18:52;;;;;;;14.68;9.05;;;13.60;99.90;;;;;;4167868;28;20370;-76
2021/09/22 07:20:53;;;;;;;20.75;10.65;;;13.60;99.90;;;;;;4168720;28;20093;-76
2021/09/22 07:22:53;;;;;;;16.33;10.77;;;13.70;99.90;;;;;;4165671;28;20405;-76
2021/09/22 07:24:54;;;;;;;13.98;10.05;;;13.70;99.90;;;;;;4168264;28;20584;-76
2021/09/22 07:26:54;;;;;;;16.40;11.02;;;13.70;99.90;;;;;;4171478;28;20048;-76
2021/09/22 07:28:55;;;;;;;18.25;11.80;;;13.70;99.90;;;;;;4165730;28;20041;-76
2021/09/22 07:30:56;;;;;;;17.15;11.48;;;13.70;99.90;;;;;;4166043;28;20052;-76
2021/09/22 07:32:59;;;;;;;20.05;11.07;;;13.70;99.90;;;;;;4166498;28;20044;-76
2021/09/22 07:35:00;;;;;;;18.83;10.65;;;13.80;99.90;;;;;;4165377;28;20029;-76
2021/09/22 07:37:06;;;;;;;16.80;10.13;;;13.80;99.90;;;;;;4165997;28;20056;-76
2021/09/22 07:39:07;;;;;;;17.05;10.85;;;13.90;99.90;;;;;;4164473;28;20047;-76
2021/09/22 07:41:08;;;;;;;15.68;10.60;;;13.90;99.90;;;;;;4166131;28;20522;-75
2021/09/22 07:43:09;;;;;;;15.02;10.50;;;13.90;99.90;;;;;;4166956;28;21215;-76
2021/09/22 07:45:11;;;;;;;18.92;10.73;;;14.00;99.90;;;;;;4163843;28;20044;-75
2021/09/22 07:47:13;;;;;;;17.15;11.23;;;14.00;99.90;;;;;;4145670;28;20049;-76
2021/09/22 07:49:14;;;;;;;16.17;10.60;;;14.10;99.90;;;;;;4169926;28;20505;-76
2021/09/22 07:51:15;;;;;;;18.55;10.88;;;14.10;99.90;;;;;;4170823;28;20045;-76
2021/09/22 07:53:16;;;;;;;16.30;10.85;;;14.20;99.90;;;;;;4166958;28;20029;-76
2021/09/22 07:55:17;;;;;;;18.08;11.40;;;14.30;99.90;;;;;;4169791;28;20132;-76
2021/09/22 07:57:18;;;;;;;16.83;11.13;;;14.30;99.90;;;;;;4170007;28;20370;-76
2021/09/22 07:59:18;;;;;;;19.67;11.98;;;14.40;99.90;;;;;;4151899;28;20137;-75
2021/09/22 08:01:20;;;;;;;14.73;10.18;;;14.40;99.90;;;;;;4173547;28;20140;-75
2021/09/22 08:03:20;;;;;;;20.50;12.38;;;14.50;99.90;;;;;;4171860;28;20142;-76
2021/09/22 08:05:21;;;;;;;19.52;11.68;;;14.60;99.90;;;;;;4164921;28;20041;-75
2021/09/22 08:07:22;;;;;;;17.88;11.88;;;14.60;99.90;;;;;;4166899;28;20050;-75
2021/09/22 08:09:23;;;;;;;16.30;10.52;;;14.70;99.90;;;;;;4164031;28;20135;-75
2021/09/22 08:11:24;;;;;;;16.90;11.07;;;14.80;99.90;;;;;;4154810;28;20417;-75
2021/09/22 08:13:24;;;;;;;21.90;13.10;;;14.90;99.90;;;;;;4161125;28;20033;-76
2021/09/22 08:15:25;;;;;;;18.40;12.02;;;15.00;99.90;;;;;;4165167;28;20036;-76
2021/09/22 08:17:26;;;;;;;14.10;10.18;;;15.00;99.90;;;;;;4167206;28;20068;-75
2021/09/22 08:19:28;;;;;;;17.33;11.38;;;15.20;99.90;;;;;;4170205;28;20055;-75
2021/09/22 08:21:28;;;;;;;19.88;12.77;;;15.20;99.90;;;;;;4168629;28;20079;-75
2021/09/22 08:23:29;;;;;;;18.55;11.55;;;15.30;99.90;;;;;;4165843;28;20099;-75
2021/09/22 08:25:30;;;;;;;21.98;12.20;;;15.40;99.90;;;;;;4165560;28;20021;-75
2021/09/22 08:27:31;;;;;;;21.30;12.85;;;15.50;99.90;;;;;;4165232;28;20044;-75
2021/09/22 08:29:33;;;;;;;19.00;12.45;;;15.50;99.90;;;;;;4161343;28;20044;-75
2021/09/22 08:31:34;;;;;;;23.70;12.07;;;15.50;99.90;;;;;;4165780;28;20432;-75
2021/09/22 08:33:35;;;;;;;17.65;11.90;;;15.60;99.90;;;;;;4164610;28;20039;-75
2021/09/22 08:35:35;;;;;;;21.17;12.45;;;15.70;99.90;;;;;;4168901;28;20029;-76
2021/09/22 08:37:36;;;;;;;18.50;11.90;;;15.80;99.90;;;;;;4168399;28;20033;-76
2021/09/22 08:39:37;;;;;;;20.20;12.88;;;15.80;99.90;;;;;;4169717;28;20023;-76
2021/09/22 08:41:38;;;;;;;20.83;12.50;;;15.90;99.90;;;;;;4166967;28;20040;-76
2021/09/22 08:43:42;;;;;;;20.30;11.93;;;16.00;99.90;;;;;;4168521;28;20103;-75
2021/09/22 08:45:42;;;;;;;16.58;11.95;;;16.10;99.90;;;;;;4168439;28;20048;-75
2021/09/22 08:47:44;;;;;;;21.33;13.25;;;16.20;99.90;;;;;;4167424;28;20048;-75
2021/09/22 08:49:48;;;;;;;16.00;10.80;;;16.20;99.90;;;;;;4150537;28;20151;-75
2021/09/22 08:51:49;;;;;;;16.55;10.82;;;16.30;99.90;;;;;;4168790;28;20036;-75
2021/09/22 08:53:49;;;;;;;16.60;10.30;;;16.40;99.90;;;;;;4167753;28;20587;-75
2021/09/22 08:55:51;;;;;;;17.70;11.63;;;16.50;99.90;;;;;;4172349;28;20545;-76
2021/09/22 08:57:52;;;;;;;21.67;11.70;;;16.60;99.90;;;;;;4145327;28;20052;-75
2021/09/22 08:59:52;;;;;;;17.05;10.68;;;16.70;99.90;;;;;;4163580;28;20638;-76
2021/09/22 09:02:13;;;;;;;20.20;12.05;;;16.80;99.90;;;;;;4163545;28;20036;-75
2021/09/22 09:04:19;;;;;;;16.05;10.57;;;16.80;99.90;;;;;;4167100;28;20090;-75
2021/09/22 09:06:24;;;;;;;16.60;10.90;;;17.00;99.90;;;;;;4169132;28;20037;-75
2021/09/22 09:08:25;;;;;;;16.30;10.13;;;17.10;99.90;;;;;;4166835;28;20037;-75
2021/09/22 09:10:28;;;;;;;17.17;10.38;;;17.10;99.90;;;;;;4168687;28;20381;-75
2021/09/22 09:12:29;;;;;;;15.25;10.40;;;17.20;99.90;;;;;;4169861;28;20125;-75
2021/09/22 09:14:34;;;;;;;17.40;11.02;;;17.20;99.90;;;;;;4169311;28;20112;-75
2021/09/22 09:16:42;;;;;;;17.58;10.70;;;17.30;99.90;;;;;;4166284;28;20026;-75
2021/09/22 09:18:48;;;;;;;16.27;10.57;;;17.40;99.90;;;;;;4149704;28;20079;-75
2021/09/22 09:20:51;;;;;;;20.63;12.25;;;17.40;99.90;;;;;;4168938;28;20036;-75
2021/09/22 09:23:06;;;;;;;17.08;10.40;;;17.50;99.90;;;;;;4164816;28;20440;-75
2021/09/22 09:25:07;;;;;;;15.43;9.27;;;17.50;99.90;;;;;;4167831;28;20032;-75
2021/09/22 09:27:19;;;;;;;14.82;10.40;;;17.60;99.90;;;;;;4170037;28;20048;-75
2021/09/22 09:29:20;;;;;;;12.75;9.07;;;17.70;99.90;;;;;;4167145;28;20494;-76
2021/09/22 09:31:22;;;;;;;13.65;9.48;;;17.80;99.90;;;;;;4169767;28;20124;-75
2021/09/22 09:33:46;;;;;;;15.63;9.68;;;17.90;99.90;;;;;;4169302;28;20036;-75
2021/09/22 09:35:47;;;;;;;13.40;9.80;;;18.00;99.90;;;;;;4167825;28;20049;-75
2021/09/22 09:37:53;;;;;;;13.38;9.18;;;18.10;99.90;;;;;;4169944;28;20048;-74
2021/09/22 09:39:53;;;;;;;13.05;9.05;;;18.20;99.90;;;;;;4169568;28;20631;-75
2021/09/22 09:41:57;;;;;;;14.25;9.40;;;18.20;99.90;;;;;;4165677;28;20051;-74
2021/09/22 09:44:00;;;;;;;15.02;9.65;;;18.30;99.90;;;;;;4169850;28;20112;-75
2021/09/22 09:46:00;;;;;;;12.73;8.60;;;18.40;99.90;;;;;;4170040;28;20037;-75
2021/09/22 09:48:20;;;;;;;15.02;9.18;;;18.50;99.90;;;;;;4167995;28;20029;-74
2021/09/22 09:50:22;;;;;;;17.13;10.02;;;18.50;99.90;;;;;;4168258;28;20160;-75
2021/09/22 09:52:22;;;;;;;12.43;8.93;;;18.60;99.90;;;;;;4168084;28;20029;-75
2021/09/22 09:54:27;;;;;;;15.27;10.02;;;18.70;99.90;;;;;;4167615;28;20052;-75
2021/09/22 09:56:30;;;;;;;16.08;10.57;;;18.70;99.90;;;;;;4166891;28;20057;-74
2021/09/22 09:58:44;;;;;;;16.77;9.85;;;18.70;99.90;;;;;;4169929;28;20033;-75
2021/09/22 10:00:48;;;;;;;14.80;10.02;;;18.70;99.90;;;;;;4171203;28;20036;-74
2021/09/22 10:02:50;;;;;;;11.75;8.63;;;18.80;99.90;;;;;;4169014;28;20144;-75
2021/09/22 10:04:51;;;;;;;16.50;8.85;;;18.80;99.90;;;;;;4172700;28;20461;-74
2021/09/22 10:06:52;;;;;;;14.60;9.57;;;18.90;99.90;;;;;;4169471;28;20048;-74
2021/09/22 10:08:53;;;;;;;12.57;8.45;;;18.90;99.90;;;;;;4170499;28;20029;-74
2021/09/22 10:10:55;;;;;;;11.85;8.43;;;18.90;99.90;;;;;;4171893;28;20433;-74
2021/09/22 10:12:56;;;;;;;14.75;8.55;;;18.90;99.90;;;;;;4170213;28;20052;-74
2021/09/22 10:14:58;;;;;;;24.23;8.70;;;19.00;99.90;;;;;;4171904;28;20025;-74
2021/09/22 10:17:01;;;;;;;13.38;9.00;;;19.00;99.90;;;;;;4170940;28;20026;-74
2021/09/22 10:19:03;;;;;;;12.95;8.48;;;19.10;99.90;;;;;;4172754;28;20049;-74
2021/09/22 10:21:04;;;;;;;13.80;8.68;;;19.20;99.90;;;;;;4172058;28;20136;-75
2021/09/22 10:23:09;;;;;;;17.08;9.85;;;19.20;99.90;;;;;;4171971;28;20369;-74
2021/09/22 10:25:10;;;;;;;11.10;7.53;;;19.20;99.90;;;;;;4169922;28;20045;-74
2021/09/22 10:27:15;;;;;;;12.65;8.38;;;19.30;99.90;;;;;;4171735;28;20033;-74